createdAt,value
2023-03-04T00:02:08.772Z,23.02
2023-03-04T00:04:38.856Z,22.40
2023-03-04T00:07:05.966Z,22.38
2023-03-04T00:09:33.082Z,24.63
2023-03-04T00:12:00.254Z,23.23
2023-03-04T00:14:30.011Z,27.38
2023-03-04T00:16:57.639Z,28.33
2023-03-04T00:19:24.881Z,26.60
2023-03-04T00:21:52.039Z,29.38
2023-03-04T00:24:19.198Z,29.10
2023-03-04T00:26:46.590Z,32.53
2023-03-04T00:29:13.797Z,32.60
2023-03-04T00:31:40.992Z,29.98
2023-03-04T00:34:10.939Z,30.45
2023-03-04T00:36:38.304Z,29.05
2023-03-04T00:39:05.666Z,29.55
2023-03-04T00:41:32.854Z,28.98
2023-03-04T00:44:00.087Z,28.75
2023-03-04T00:46:27.240Z,26.38
2023-03-04T00:48:54.364Z,26.40
2023-03-04T00:51:21.542Z,27.58
2023-03-04T00:53:48.752Z,25.83
2023-03-04T00:56:15.901Z,25.73
2023-03-04T00:58:43.144Z,24.73
2023-03-04T01:01:10.772Z,23.77
2023-03-04T01:03:37.972Z,23.45
2023-03-04T01:06:05.455Z,22.58
2023-03-04T01:08:32.591Z,23.98
2023-03-04T01:10:59.728Z,23.95
2023-03-04T01:13:26.858Z,23.30
2023-03-04T01:15:54.083Z,22.95
2023-03-04T01:18:21.256Z,24.33
2023-03-04T01:20:48.404Z,23.60
2023-03-04T01:23:15.578Z,22.50
2023-03-04T01:25:42.966Z,23.77
2023-03-04T01:28:10.470Z,23.90
2023-03-04T01:30:37.689Z,24.50
2023-03-04T01:33:04.910Z,24.77
2023-03-04T01:35:32.047Z,23.08
2023-03-04T01:37:59.575Z,22.27
2023-03-04T01:40:26.715Z,22.25
2023-03-04T01:42:54.995Z,22.88
2023-03-04T01:45:24.884Z,24.27
2023-03-04T01:47:52.690Z,23.90
2023-03-04T01:50:33.364Z,24.90
2023-03-04T01:53:01.220Z,21.58
2023-03-04T01:55:28.755Z,23.63
2023-03-04T01:57:57.432Z,21.63
2023-03-04T02:00:34.311Z,23.60
2023-03-04T02:03:07.955Z,22.75
2023-03-04T02:05:36.442Z,23.58
2023-03-04T02:08:03.593Z,23.27
2023-03-04T02:10:30.765Z,21.67
2023-03-04T02:12:59.315Z,23.92
2023-03-04T02:15:27.614Z,22.30
2023-03-04T02:17:54.989Z,22.73
2023-03-04T02:20:31.002Z,21.27
2023-03-04T02:23:36.369Z,22.00
2023-03-04T02:26:20.162Z,18.23
2023-03-04T02:28:51.333Z,22.15
2023-03-04T02:31:37.765Z,21.27
2023-03-04T02:34:13.748Z,22.02
2023-03-04T02:36:41.175Z,22.17
2023-03-04T02:39:33.186Z,22.98
2023-03-04T02:42:00.843Z,22.17
2023-03-04T02:44:30.662Z,20.50
2023-03-04T02:46:58.826Z,22.15
2023-03-04T02:49:28.228Z,20.73
2023-03-04T02:52:21.195Z,22.50
2023-03-04T02:54:48.441Z,20.52
2023-03-04T02:57:17.177Z,20.20
2023-03-04T02:59:48.229Z,19.65
2023-03-04T03:02:19.515Z,19.95
2023-03-04T03:04:46.670Z,19.02
2023-03-04T03:07:16.316Z,21.02
2023-03-04T03:09:44.471Z,19.33
2023-03-04T03:12:11.700Z,21.70
2023-03-04T03:14:39.137Z,19.17
2023-03-04T03:17:08.244Z,19.45
2023-03-04T03:19:35.366Z,20.40
2023-03-04T03:22:05.867Z,19.45
2023-03-04T03:24:33.108Z,18.95
2023-03-04T03:27:00.288Z,18.65
2023-03-04T03:29:27.457Z,18.73
2023-03-04T03:31:54.652Z,19.65
2023-03-04T03:34:21.799Z,19.33
2023-03-04T03:36:49.763Z,18.02
2023-03-04T03:39:17.468Z,18.67
2023-03-04T03:41:44.578Z,18.63
2023-03-04T03:44:11.662Z,18.92
2023-03-04T03:46:38.858Z,19.48
2023-03-04T03:49:06.062Z,21.88
2023-03-04T03:51:33.248Z,20.60
2023-03-04T03:54:00.402Z,21.15
2023-03-04T03:56:27.538Z,21.73
2023-03-04T03:58:54.673Z,23.98
2023-03-04T04:01:21.822Z,22.25
2023-03-04T04:03:48.956Z,24.77
2023-03-04T04:06:16.144Z,25.27
2023-03-04T04:08:43.648Z,23.13
2023-03-04T04:11:12.059Z,24.88
2023-03-04T04:13:39.543Z,22.52
2023-03-04T04:16:07.718Z,20.27
2023-03-04T04:18:34.936Z,22.13
2023-03-04T04:21:02.089Z,19.23
2023-03-04T04:23:29.247Z,20.67
2023-03-04T04:25:56.776Z,19.15
2023-03-04T04:28:24.559Z,19.67
2023-03-04T04:30:52.016Z,20.50
2023-03-04T04:33:19.255Z,19.65
2023-03-04T04:35:46.411Z,17.95
2023-03-04T04:38:13.655Z,19.40
2023-03-04T04:40:40.817Z,20.77
2023-03-04T04:43:07.920Z,20.65
2023-03-04T04:45:35.186Z,19.75
2023-03-04T04:48:02.301Z,19.45
2023-03-04T04:50:31.852Z,19.83
2023-03-04T04:53:00.172Z,20.17
2023-03-04T04:55:28.205Z,20.85
2023-03-04T04:57:55.354Z,19.50
2023-03-04T05:00:22.502Z,19.75
2023-03-04T05:02:51.960Z,20.08
2023-03-04T05:05:19.233Z,20.00
2023-03-04T05:07:46.404Z,20.30
2023-03-04T05:10:13.566Z,19.98
2023-03-04T05:12:41.052Z,23.17
2023-03-04T05:15:08.751Z,19.30
2023-03-04T05:17:35.851Z,21.00
2023-03-04T05:20:03.583Z,19.35
2023-03-04T05:22:30.739Z,19.30
2023-03-04T05:24:57.838Z,20.15
2023-03-04T05:27:25.047Z,20.20
2023-03-04T05:29:52.272Z,19.83
2023-03-04T05:32:19.496Z,19.30
2023-03-04T05:34:46.689Z,20.90
2023-03-04T05:37:13.837Z,21.67
2023-03-04T05:39:40.986Z,21.75
2023-03-04T05:42:09.237Z,19.92
2023-03-04T05:44:36.423Z,21.77
2023-03-04T05:47:03.594Z,21.40
2023-03-04T05:49:30.727Z,22.33
2023-03-04T05:51:57.981Z,19.92
2023-03-04T05:54:25.173Z,21.48
2023-03-04T05:56:52.297Z,22.70
2023-03-04T05:59:20.870Z,23.13
2023-03-04T06:01:48.261Z,21.73
2023-03-04T06:04:15.428Z,21.88
2023-03-04T06:06:42.769Z,23.00
2023-03-04T06:09:09.859Z,24.10
2023-03-04T06:11:37.126Z,24.02
2023-03-04T06:14:04.355Z,22.88
2023-03-04T06:16:31.664Z,24.38
2023-03-04T06:18:58.826Z,23.98
2023-03-04T06:21:25.986Z,23.02
2023-03-04T06:23:53.119Z,22.02
2023-03-04T06:26:20.335Z,22.17
2023-03-04T06:28:47.460Z,24.80
2023-03-04T06:31:14.718Z,23.92
2023-03-04T06:33:41.950Z,22.75
2023-03-04T06:36:09.164Z,23.20
2023-03-04T06:38:36.287Z,23.67
2023-03-04T06:41:12.449Z,23.42
2023-03-04T06:43:39.670Z,24.80
2023-03-04T06:46:07.809Z,26.50
2023-03-04T06:48:35.029Z,25.90
2023-03-04T06:51:07.823Z,25.30
2023-03-04T06:53:35.211Z,24.02
2023-03-04T06:56:02.432Z,23.70
2023-03-04T06:58:29.580Z,23.85
2023-03-04T07:01:14.417Z,24.67
2023-03-04T07:03:41.784Z,24.10
2023-03-04T07:06:11.468Z,24.55
2023-03-04T07:08:38.935Z,25.73
2023-03-04T07:11:06.140Z,22.98
2023-03-04T07:13:35.427Z,24.17
2023-03-04T07:16:02.601Z,23.38
2023-03-04T07:18:29.714Z,24.52
2023-03-04T07:20:56.860Z,21.75
2023-03-04T07:23:24.079Z,23.67
2023-03-04T07:25:52.478Z,22.73
2023-03-04T07:28:19.766Z,23.98
2023-03-04T07:30:46.918Z,24.02
2023-03-04T07:33:14.473Z,23.30
2023-03-04T07:35:42.478Z,25.10
2023-03-04T07:38:09.761Z,22.55
2023-03-04T07:40:36.907Z,22.88
2023-03-04T07:43:04.426Z,23.08
2023-03-04T07:45:33.201Z,23.63
2023-03-04T07:48:03.720Z,23.60
2023-03-04T07:50:30.915Z,24.60
2023-03-04T07:52:58.227Z,22.13
2023-03-04T07:55:25.481Z,24.23
2023-03-04T07:57:53.006Z,24.30
2023-03-04T08:00:20.709Z,24.63
2023-03-04T08:02:47.906Z,24.33
2023-03-04T08:05:18.069Z,23.02
2023-03-04T08:07:45.301Z,23.90
2023-03-04T08:10:12.481Z,22.63
2023-03-04T08:12:39.652Z,23.27
2023-03-04T08:15:07.845Z,23.73
2023-03-04T08:17:35.571Z,23.17
2023-03-04T08:20:02.708Z,24.63
2023-03-04T08:22:29.809Z,25.23
2023-03-04T08:24:57.231Z,24.10
2023-03-04T08:27:24.401Z,24.10
2023-03-04T08:29:51.698Z,24.23
2023-03-04T08:32:19.766Z,26.25
2023-03-04T08:34:47.288Z,26.58
2023-03-04T08:37:14.407Z,24.95
2023-03-04T08:39:41.732Z,23.73
2023-03-04T08:42:09.265Z,26.83
2023-03-04T08:44:36.367Z,24.92
2023-03-04T08:47:03.489Z,25.52
2023-03-04T08:49:33.146Z,24.40
2023-03-04T08:52:01.439Z,24.60
2023-03-04T08:54:28.551Z,23.48
2023-03-04T08:56:55.784Z,25.05
2023-03-04T08:59:23.000Z,25.10
2023-03-04T09:02:07.548Z,24.00
2023-03-04T09:04:34.838Z,25.48
2023-03-04T09:07:01.991Z,25.33
2023-03-04T09:09:29.203Z,25.23
2023-03-04T09:11:56.307Z,26.02
2023-03-04T09:14:26.211Z,25.65
2023-03-04T09:16:53.367Z,25.88
2023-03-04T09:19:20.474Z,24.83
2023-03-04T09:21:48.755Z,26.50
2023-03-04T09:24:16.530Z,25.58
2023-03-04T09:26:43.782Z,26.65
2023-03-04T09:29:10.961Z,25.90
2023-03-04T09:31:38.221Z,25.95
2023-03-04T09:34:05.447Z,25.88
2023-03-04T09:36:35.506Z,25.20
2023-03-04T09:39:06.314Z,24.00
2023-03-04T09:41:44.421Z,25.08
2023-03-04T09:44:40.596Z,23.13
2023-03-04T09:47:16.104Z,23.10
2023-03-04T09:49:57.546Z,21.67
2023-03-04T09:53:04.327Z,22.98
2023-03-04T09:55:44.024Z,22.35
2023-03-04T09:58:47.006Z,22.60
2023-03-04T10:01:57.009Z,23.10
2023-03-04T10:04:44.866Z,24.50
2023-03-04T10:07:28.918Z,24.92
2023-03-04T10:10:17.587Z,26.90
2023-03-04T10:12:46.442Z,27.52
2023-03-04T10:15:40.179Z,28.27
2023-03-04T10:18:27.457Z,26.88
2023-03-04T10:20:58.280Z,27.38
2023-03-04T10:23:26.553Z,27.25
2023-03-04T10:25:54.502Z,27.73
2023-03-04T10:28:25.527Z,26.80
2023-03-04T10:30:58.557Z,25.77
2023-03-04T10:33:30.558Z,22.30
2023-03-04T10:36:29.304Z,23.92
2023-03-04T10:39:06.710Z,21.80
2023-03-04T10:41:34.016Z,23.38
2023-03-04T10:44:15.726Z,23.23
2023-03-04T10:46:45.691Z,22.35
2023-03-04T10:49:17.531Z,24.13
2023-03-04T10:51:48.067Z,22.08
2023-03-04T10:54:41.816Z,21.90
2023-03-04T10:57:42.220Z,24.08
2023-03-04T11:00:21.721Z,22.10
2023-03-04T11:02:49.314Z,22.20
2023-03-04T11:05:24.358Z,23.52
2023-03-04T11:07:59.227Z,22.40
2023-03-04T11:10:31.728Z,22.23
2023-03-04T11:12:58.778Z,23.92
2023-03-04T11:15:28.440Z,21.73
2023-03-04T11:18:34.593Z,20.35
2023-03-04T11:21:01.750Z,21.88
2023-03-04T11:23:52.100Z,23.98
2023-03-04T11:26:25.055Z,22.80
2023-03-04T11:29:12.053Z,21.65
2023-03-04T11:32:01.469Z,20.63
2023-03-04T11:34:37.971Z,19.90
2023-03-04T11:37:51.723Z,22.60
2023-03-04T11:40:33.886Z,22.92
2023-03-04T11:43:17.957Z,20.38
2023-03-04T11:46:18.413Z,19.95
2023-03-04T11:48:51.157Z,21.60
2023-03-04T11:51:52.362Z,21.15
2023-03-04T11:54:41.088Z,20.13
2023-03-04T11:57:34.164Z,21.17
2023-03-04T12:00:37.854Z,20.08
2023-03-04T12:03:42.398Z,20.33
2023-03-04T12:06:21.098Z,20.63
2023-03-04T12:09:16.139Z,19.80
2023-03-04T12:11:49.003Z,20.45
2023-03-04T12:14:50.461Z,21.63
2023-03-04T12:18:05.961Z,19.63
2023-03-04T12:20:47.467Z,20.30
2023-03-04T12:23:40.645Z,19.38
2023-03-04T12:26:30.194Z,21.27
2023-03-04T12:29:38.590Z,20.50
2023-03-04T12:32:17.580Z,21.20
2023-03-04T12:35:14.538Z,20.85
2023-03-04T12:38:21.057Z,20.65
2023-03-04T12:41:04.305Z,18.48
2023-03-04T12:43:49.679Z,18.88
2023-03-04T12:47:22.953Z,18.67
2023-03-04T12:49:58.781Z,18.67
2023-03-04T12:52:40.906Z,17.85
2023-03-04T12:55:14.628Z,17.25
2023-03-04T12:57:51.778Z,17.63
2023-03-04T13:01:00.796Z,16.98
2023-03-04T13:03:44.476Z,17.73
2023-03-04T13:06:41.326Z,18.88
2023-03-04T13:09:29.229Z,19.77
2023-03-04T13:12:22.660Z,19.13
2023-03-04T13:15:09.372Z,18.17
2023-03-04T13:18:02.342Z,20.23
2023-03-04T13:20:38.771Z,20.13
2023-03-04T13:23:35.776Z,20.80
2023-03-04T13:26:02.777Z,19.58
2023-03-04T13:28:37.799Z,20.13
2023-03-04T13:31:09.685Z,18.27
2023-03-04T13:33:36.793Z,19.40
2023-03-04T13:36:07.863Z,19.23
2023-03-04T13:38:37.956Z,19.38
2023-03-04T13:41:34.116Z,20.25
2023-03-04T13:44:03.312Z,21.92
2023-03-04T13:46:40.832Z,21.55
2023-03-04T13:49:26.611Z,21.05
2023-03-04T13:51:53.766Z,21.50
2023-03-04T13:54:30.068Z,22.40
2023-03-04T13:57:19.756Z,20.27
2023-03-04T13:59:54.640Z,21.27
2023-03-04T14:02:25.508Z,21.77
2023-03-04T14:05:03.051Z,21.60
2023-03-04T14:07:35.641Z,22.15
2023-03-04T14:10:08.332Z,19.63
2023-03-04T14:12:46.962Z,22.02
2023-03-04T14:15:57.084Z,20.65
2023-03-04T14:18:28.224Z,19.70
2023-03-04T14:20:59.007Z,18.70
2023-03-04T14:23:33.801Z,19.15
2023-03-04T14:26:05.751Z,18.77
2023-03-04T14:28:35.297Z,17.95
2023-03-04T14:31:02.412Z,19.00
2023-03-04T14:33:32.534Z,21.23
2023-03-04T14:36:04.968Z,20.20
2023-03-04T14:38:43.446Z,19.17
2023-03-04T14:41:19.020Z,19.92
2023-03-04T14:44:11.465Z,21.77
2023-03-04T14:46:42.817Z,19.85
2023-03-04T14:49:14.066Z,20.40
2023-03-04T14:51:48.167Z,19.95
2023-03-04T14:54:33.210Z,19.42
2023-03-04T14:57:05.251Z,18.83
2023-03-04T14:59:36.984Z,21.88
2023-03-04T15:02:33.365Z,24.58
2023-03-04T15:05:16.876Z,22.17
2023-03-04T15:08:01.570Z,20.98
2023-03-04T15:10:31.932Z,18.80
2023-03-04T15:13:05.486Z,19.77
2023-03-04T15:15:48.558Z,20.38
2023-03-04T15:18:55.114Z,20.55
2023-03-04T15:21:23.570Z,19.08
2023-03-04T15:23:52.788Z,19.75
2023-03-04T15:26:19.910Z,20.58
2023-03-04T15:28:46.994Z,19.70
2023-03-04T15:31:19.659Z,19.13
2023-03-04T15:33:49.232Z,19.95
2023-03-04T15:36:23.944Z,19.50
2023-03-04T15:38:52.851Z,19.65
2023-03-04T15:41:26.674Z,19.38
2023-03-04T15:43:55.836Z,19.60
2023-03-04T15:46:23.149Z,20.85
2023-03-04T15:48:50.368Z,20.25
2023-03-04T15:51:22.261Z,20.88
2023-03-04T15:53:58.780Z,20.00
2023-03-04T15:56:31.193Z,20.77
2023-03-04T15:59:12.765Z,20.02
2023-03-04T16:01:40.049Z,19.15
2023-03-04T16:04:11.397Z,19.75
2023-03-04T16:06:38.693Z,19.35
2023-03-04T16:09:09.224Z,20.83
2023-03-04T16:11:40.026Z,17.67
2023-03-04T16:14:08.354Z,18.20
2023-03-04T16:16:35.526Z,17.73
2023-03-04T16:19:02.669Z,18.65
2023-03-04T16:21:29.795Z,20.17
2023-03-04T16:23:56.902Z,20.50
2023-03-04T16:26:24.994Z,18.83
2023-03-04T16:28:52.728Z,18.10
2023-03-04T16:31:20.184Z,18.40
2023-03-04T16:33:47.481Z,16.60
2023-03-04T16:36:25.790Z,16.77
2023-03-04T16:38:55.240Z,17.48
2023-03-04T16:41:26.141Z,17.83
2023-03-04T16:43:55.787Z,17.63
2023-03-04T16:46:23.099Z,19.65
2023-03-04T16:48:50.219Z,17.92
2023-03-04T16:51:19.808Z,18.70
2023-03-04T16:53:58.016Z,15.52
2023-03-04T16:56:25.225Z,16.58
2023-03-04T16:58:54.215Z,16.30
2023-03-04T17:01:25.754Z,16.55
2023-03-04T17:03:53.560Z,16.38
2023-03-04T17:06:21.031Z,17.55
2023-03-04T17:08:48.313Z,16.58
2023-03-04T17:11:23.214Z,17.35
2023-03-04T17:13:53.089Z,17.88
2023-03-04T17:16:20.400Z,16.98
2023-03-04T17:18:47.555Z,17.60
2023-03-04T17:21:17.873Z,17.70
2023-03-04T17:23:44.990Z,15.50
2023-03-04T17:26:12.572Z,16.20
2023-03-04T17:28:39.758Z,16.63
2023-03-04T17:31:15.363Z,17.13
2023-03-04T17:33:43.817Z,15.80
2023-03-04T17:36:12.274Z,16.88
2023-03-04T17:38:39.556Z,15.95
2023-03-04T17:41:10.225Z,17.65
2023-03-04T17:43:37.375Z,19.30
2023-03-04T17:46:09.197Z,19.00
2023-03-04T17:48:36.488Z,19.90
2023-03-04T17:51:03.776Z,19.83
2023-03-04T17:53:31.428Z,19.10
2023-03-04T17:56:00.997Z,18.50
2023-03-04T17:58:29.287Z,19.27
2023-03-04T18:01:02.656Z,18.70
2023-03-04T18:03:30.064Z,19.73
2023-03-04T18:05:57.212Z,18.45
2023-03-04T18:08:24.417Z,19.27
2023-03-04T18:10:51.703Z,19.10
2023-03-04T18:13:18.815Z,18.05
2023-03-04T18:15:46.348Z,16.90
2023-03-04T18:18:16.871Z,17.83
2023-03-04T18:20:44.021Z,17.42
2023-03-04T18:23:11.125Z,18.88
2023-03-04T18:25:38.870Z,17.85
2023-03-04T18:28:15.627Z,16.88
2023-03-04T18:30:46.703Z,17.52
2023-03-04T18:33:17.481Z,16.40
2023-03-04T18:35:44.676Z,16.95
2023-03-04T18:38:11.995Z,16.17
2023-03-04T18:41:07.410Z,17.23
2023-03-04T18:43:35.102Z,17.05
2023-03-04T18:46:18.529Z,17.08
2023-03-04T18:48:50.682Z,16.63
2023-03-04T18:51:17.811Z,17.10
2023-03-04T18:53:53.649Z,17.90
2023-03-04T18:56:43.514Z,17.63
2023-03-04T18:59:46.584Z,15.80
2023-03-04T19:02:45.302Z,16.58
2023-03-04T19:05:19.914Z,17.38
2023-03-04T19:07:47.157Z,18.05
2023-03-04T19:10:15.509Z,16.98
2023-03-04T19:12:42.835Z,19.17
2023-03-04T19:15:15.705Z,18.95
2023-03-04T19:17:45.360Z,18.20
2023-03-04T19:20:13.548Z,17.25
2023-03-04T19:22:40.730Z,17.52
2023-03-04T19:25:08.639Z,16.75
2023-03-04T19:27:36.626Z,16.52
2023-03-04T19:30:05.318Z,16.27
2023-03-04T19:32:33.668Z,18.73
2023-03-04T19:35:00.821Z,17.45
2023-03-04T19:37:27.997Z,16.00
2023-03-04T19:39:56.053Z,16.88
2023-03-04T19:42:24.044Z,17.42
2023-03-04T19:44:51.217Z,18.23
2023-03-04T19:47:18.366Z,18.45
2023-03-04T19:49:45.704Z,17.95
2023-03-04T19:52:12.805Z,17.73
2023-03-04T19:54:41.230Z,19.35
2023-03-04T19:57:13.523Z,18.85
2023-03-04T19:59:40.629Z,18.65
2023-03-04T20:02:07.866Z,19.20
2023-03-04T20:04:35.434Z,22.15
2023-03-04T20:07:02.711Z,20.10
2023-03-04T20:09:38.576Z,19.05
2023-03-04T20:12:05.877Z,18.85
2023-03-04T20:14:34.049Z,18.98
2023-03-04T20:17:02.734Z,18.33
2023-03-04T20:19:33.497Z,19.52
2023-03-04T20:22:01.153Z,17.42
2023-03-04T20:24:28.296Z,18.92
2023-03-04T20:26:55.709Z,19.55
2023-03-04T20:29:23.155Z,18.58
2023-03-04T20:31:50.801Z,17.70
2023-03-04T20:34:25.599Z,19.02
2023-03-04T20:36:52.854Z,20.45
2023-03-04T20:39:28.610Z,18.83
2023-03-04T20:42:00.213Z,19.00
2023-03-04T20:44:27.614Z,18.88
2023-03-04T20:46:54.796Z,19.08
2023-03-04T20:49:24.663Z,18.83
2023-03-04T20:52:08.032Z,20.50
2023-03-04T20:54:38.662Z,18.67
2023-03-04T20:57:09.645Z,18.77
2023-03-04T20:59:38.384Z,19.00
2023-03-04T21:02:07.393Z,18.60
2023-03-04T21:04:34.642Z,19.08
2023-03-04T21:07:02.206Z,20.70
2023-03-04T21:09:29.752Z,20.88
2023-03-04T21:11:57.593Z,22.92
2023-03-04T21:14:32.398Z,24.15
2023-03-04T21:17:02.407Z,20.20
2023-03-04T21:19:36.177Z,21.45
2023-03-04T21:22:03.545Z,21.52
2023-03-04T21:24:35.324Z,18.58
2023-03-04T21:27:04.252Z,19.80
2023-03-04T21:29:31.439Z,18.15
2023-03-04T21:32:25.040Z,17.88
2023-03-04T21:34:53.569Z,18.95
2023-03-04T21:37:21.662Z,17.98
2023-03-04T21:39:48.810Z,18.30
2023-03-04T21:42:16.023Z,17.75
2023-03-04T21:44:51.677Z,17.92
2023-03-04T21:47:22.628Z,18.83
2023-03-04T21:49:50.328Z,17.45
2023-03-04T21:52:18.951Z,19.52
2023-03-04T21:54:46.069Z,18.02
2023-03-04T21:57:14.257Z,17.13
2023-03-04T21:59:41.394Z,19.40
2023-03-04T22:02:16.803Z,17.23
2023-03-04T22:04:46.714Z,18.90
2023-03-04T22:07:16.853Z,18.55
2023-03-04T22:09:49.819Z,18.33
2023-03-04T22:12:19.446Z,17.85
2023-03-04T22:14:47.024Z,18.13
2023-03-04T22:17:14.318Z,17.10
2023-03-04T22:19:41.584Z,17.90
2023-03-04T22:22:08.760Z,16.85
2023-03-04T22:24:39.340Z,17.70
2023-03-04T22:27:06.490Z,18.70
2023-03-04T22:29:33.624Z,17.92
2023-03-04T22:32:00.838Z,17.88
2023-03-04T22:34:30.356Z,17.70
2023-03-04T22:36:57.578Z,18.00
2023-03-04T22:39:24.709Z,18.60
2023-03-04T22:41:51.880Z,18.27
2023-03-04T22:44:19.109Z,18.75
2023-03-04T22:46:46.322Z,18.35
2023-03-04T22:49:13.870Z,17.83
2023-03-04T22:51:47.382Z,17.55
2023-03-04T22:54:16.707Z,16.97
2023-03-04T22:56:44.239Z,16.88
2023-03-04T22:59:11.425Z,18.60
2023-03-04T23:01:38.592Z,17.65
2023-03-04T23:04:05.899Z,16.02
2023-03-04T23:06:33.097Z,17.92
2023-03-04T23:09:00.293Z,17.58
2023-03-04T23:11:32.875Z,20.00
2023-03-04T23:14:02.237Z,20.35
2023-03-04T23:16:29.492Z,20.48
2023-03-04T23:18:59.126Z,19.08
2023-03-04T23:21:28.260Z,18.23
2023-03-04T23:23:55.589Z,18.00
2023-03-04T23:26:27.769Z,16.98
2023-03-04T23:28:56.949Z,16.05
2023-03-04T23:31:25.609Z,14.65
2023-03-04T23:33:57.218Z,15.85
2023-03-04T23:36:33.686Z,14.10
2023-03-04T23:39:01.075Z,14.68
2023-03-04T23:41:29.816Z,18.60
2023-03-04T23:43:57.959Z,19.65
2023-03-04T23:46:25.558Z,19.80
2023-03-04T23:48:52.818Z,18.92
2023-03-04T23:51:23.551Z,17.02
2023-03-04T23:53:50.830Z,15.73
2023-03-04T23:56:23.987Z,17.05
2023-03-04T23:58:53.942Z,16.02
